createdAt,value
2016-08-26T00:00:34.316Z,26.73
2016-08-26T00:01:33.719Z,26.73
2016-08-26T00:02:32.360Z,26.8
2016-08-26T00:03:33.073Z,26.75
2016-08-26T00:04:33.037Z,26.73
2016-08-26T00:05:33.093Z,26.75
2016-08-26T00:06:33.758Z,26.67
2016-08-26T00:07:33.054Z,26.73
2016-08-26T00:08:33.064Z,26.7
2016-08-26T00:09:33.127Z,26.69
2016-08-26T00:10:33.784Z,26.76
2016-08-26T00:11:34.343Z,26.73
2016-08-26T00:12:33.093Z,26.7
2016-08-26T00:13:33.101Z,26.7
2016-08-26T00:14:33.110Z,26.6
2016-08-26T00:15:32.413Z,26.65
2016-08-26T00:16:33.141Z,26.66
2016-08-26T00:17:33.135Z,26.72
2016-08-26T00:18:32.437Z,26.63
2016-08-26T00:19:33.172Z,26.69
2016-08-26T00:20:33.161Z,26.67
2016-08-26T00:21:33.172Z,26.69
2016-08-26T00:22:33.729Z,26.66
2016-08-26T00:23:33.188Z,26.66
2016-08-26T00:24:33.199Z,26.65
2016-08-26T00:25:33.915Z,26.67
2016-08-26T00:26:33.214Z,26.7
2016-08-26T00:27:33.226Z,26.66
2016-08-26T00:28:33.938Z,26.65
2016-08-26T00:29:33.292Z,26.69
2016-08-26T00:30:33.959Z,26.7
2016-08-26T00:31:34.669Z,26.73
2016-08-26T00:32:32.557Z,26.63
2016-08-26T00:33:33.983Z,26.7
2016-08-26T00:34:33.284Z,26.67
2016-08-26T00:35:34.401Z,26.66
2016-08-26T00:36:33.307Z,26.67
2016-08-26T00:37:32.599Z,26.67
2016-08-26T00:38:34.022Z,26.65
2016-08-26T00:39:34.031Z,26.66
2016-08-26T00:40:34.042Z,26.63
2016-08-26T00:41:34.049Z,26.69
2016-08-26T00:42:34.062Z,26.66
2016-08-26T00:43:34.060Z,26.69
2016-08-26T00:44:33.366Z,26.67
2016-08-26T00:45:32.668Z,26.63
2016-08-26T00:46:34.706Z,26.73
2016-08-26T00:47:32.681Z,26.69
2016-08-26T00:48:33.395Z,26.66
2016-08-26T00:49:33.409Z,26.63
2016-08-26T00:50:33.415Z,26.73
2016-08-26T00:51:32.714Z,26.69
2016-08-26T00:52:33.432Z,26.72
2016-08-26T00:53:33.438Z,26.67
2016-08-26T00:54:33.449Z,26.7
2016-08-26T00:55:32.948Z,26.66
2016-08-26T00:56:34.170Z,26.69
2016-08-26T00:57:34.106Z,26.7
2016-08-26T00:58:34.188Z,26.67
2016-08-26T00:59:33.492Z,26.66
2016-08-26T01:00:33.499Z,26.7
2016-08-26T01:01:32.797Z,26.73
2016-08-26T01:02:34.222Z,26.66
2016-08-26T01:03:33.572Z,26.67
2016-08-26T01:04:34.240Z,26.67
2016-08-26T01:05:33.539Z,26.67
2016-08-26T01:06:35.145Z,26.72
2016-08-26T01:07:33.557Z,26.67
2016-08-26T01:08:34.414Z,26.7
2016-08-26T01:09:33.574Z,26.67
2016-08-26T01:10:33.578Z,26.67
2016-08-26T01:11:32.880Z,26.65
2016-08-26T01:12:32.944Z,26.69
2016-08-26T01:13:34.313Z,26.73
2016-08-26T01:14:34.330Z,26.65
2016-08-26T01:15:32.915Z,26.65
2016-08-26T01:16:32.922Z,26.67
2016-08-26T01:17:33.643Z,26.72
2016-08-26T01:18:33.650Z,26.66
2016-08-26T01:19:34.781Z,26.7
2016-08-26T01:20:33.663Z,26.69
2016-08-26T01:21:33.672Z,26.65
2016-08-26T01:22:34.387Z,26.66
2016-08-26T01:23:32.981Z,26.62
2016-08-26T01:24:34.403Z,26.67
2016-08-26T01:25:33.706Z,26.65
2016-08-26T01:26:33.006Z,26.72
2016-08-26T01:27:34.430Z,26.69
2016-08-26T01:28:33.735Z,26.69
2016-08-26T01:29:33.738Z,26.63
2016-08-26T01:30:35.208Z,26.63
2016-08-26T01:31:34.465Z,26.62
2016-08-26T01:32:34.473Z,26.62
2016-08-26T01:33:34.495Z,26.63
2016-08-26T01:34:34.488Z,26.63
2016-08-26T01:35:33.787Z,26.58
2016-08-26T01:36:34.551Z,26.65
2016-08-26T01:37:33.806Z,26.58
2016-08-26T01:38:33.812Z,26.55
2016-08-26T01:39:33.823Z,26.65
2016-08-26T01:40:34.535Z,26.63
2016-08-26T01:41:33.830Z,26.65
2016-08-26T01:42:34.555Z,26.5
2016-08-26T01:43:35.073Z,26.52
2016-08-26T01:44:34.571Z,26.62
2016-08-26T01:45:33.873Z,26.66
2016-08-26T01:46:33.879Z,26.66
2016-08-26T01:47:33.889Z,26.58
2016-08-26T01:48:34.603Z,26.66
2016-08-26T01:49:34.608Z,26.65
2016-08-26T01:50:33.914Z,26.63
2016-08-26T01:51:33.212Z,26.6
2016-08-26T01:52:33.982Z,26.58
2016-08-26T01:53:34.647Z,26.52
2016-08-26T01:54:33.996Z,26.67
2016-08-26T01:55:34.663Z,26.65
2016-08-26T01:56:33.961Z,26.62
2016-08-26T01:57:33.974Z,26.57
2016-08-26T01:58:33.979Z,26.57
2016-08-26T01:59:33.992Z,26.6
2016-08-26T02:00:34.700Z,26.65
2016-08-26T02:01:33.292Z,26.54
2016-08-26T02:02:33.324Z,26.62
2016-08-26T02:03:33.564Z,26.65
2016-08-26T02:04:34.076Z,26.65
2016-08-26T02:05:34.852Z,26.51
2016-08-26T02:06:34.093Z,26.54
2016-08-26T02:07:34.770Z,26.51
2016-08-26T02:08:34.767Z,26.5
2016-08-26T02:09:34.067Z,26.51
2016-08-26T02:10:34.127Z,26.52
2016-08-26T02:11:34.084Z,26.57
2016-08-26T02:12:34.851Z,26.63
2016-08-26T02:13:33.394Z,26.52
2016-08-26T02:14:34.108Z,26.54
2016-08-26T02:15:34.873Z,26.54
2016-08-26T02:16:35.223Z,26.5
2016-08-26T02:17:34.136Z,26.55
2016-08-26T02:18:33.685Z,26.52
2016-08-26T02:19:34.856Z,26.51
2016-08-26T02:20:34.865Z,26.47
2016-08-26T02:21:34.321Z,26.47
2016-08-26T02:22:33.469Z,26.57
2016-08-26T02:23:33.478Z,26.52
2016-08-26T02:24:33.483Z,26.55
2016-08-26T02:25:34.908Z,26.51
2016-08-26T02:26:34.205Z,26.52
2016-08-26T02:27:35.421Z,26.54
2016-08-26T02:28:34.224Z,26.55
2016-08-26T02:29:34.236Z,26.57
2016-08-26T02:30:34.946Z,26.48
2016-08-26T02:31:34.246Z,26.55
2016-08-26T02:32:33.550Z,26.52
2016-08-26T02:33:34.264Z,26.52
2016-08-26T02:34:34.276Z,26.6
2016-08-26T02:35:34.987Z,26.52
2016-08-26T02:36:34.991Z,26.58
2016-08-26T02:37:33.588Z,26.51
2016-08-26T02:38:34.956Z,26.5
2016-08-26T02:39:34.316Z,26.57
2016-08-26T02:40:33.616Z,26.54
2016-08-26T02:41:34.377Z,26.57
2016-08-26T02:42:35.053Z,26.55
2016-08-26T02:43:33.642Z,26.55
2016-08-26T02:44:34.355Z,26.52
2016-08-26T02:45:33.656Z,26.55
2016-08-26T02:46:34.372Z,26.48
2016-08-26T02:47:34.383Z,26.54
2016-08-26T02:48:33.684Z,26.54
2016-08-26T02:49:35.456Z,26.55
2016-08-26T02:50:35.112Z,26.51
2016-08-26T02:51:36.004Z,26.57
2016-08-26T02:52:35.131Z,26.52
2016-08-26T02:53:35.289Z,26.51
2016-08-26T02:54:33.732Z,26.52
2016-08-26T02:55:34.442Z,26.52
2016-08-26T02:56:35.165Z,26.55
2016-08-26T02:57:34.468Z,26.55
2016-08-26T02:58:33.765Z,26.52
2016-08-26T02:59:35.187Z,26.57
2016-08-26T03:00:35.035Z,26.57
2016-08-26T03:01:34.489Z,26.55
2016-08-26T03:02:33.807Z,26.5
2016-08-26T03:03:35.215Z,26.48
2016-08-26T03:04:34.718Z,26.52
2016-08-26T03:05:34.524Z,26.55
2016-08-26T03:06:33.823Z,26.48
2016-08-26T03:07:33.886Z,26.5
2016-08-26T03:08:33.843Z,26.48
2016-08-26T03:09:35.263Z,26.48
2016-08-26T03:10:34.566Z,26.48
2016-08-26T03:11:34.575Z,26.5
2016-08-26T03:12:34.633Z,26.47
2016-08-26T03:13:36.375Z,26.45
2016-08-26T03:14:35.304Z,26.45
2016-08-26T03:15:34.905Z,26.45
2016-08-26T03:16:34.665Z,26.45
2016-08-26T03:17:33.916Z,26.54
2016-08-26T03:18:34.626Z,26.39
2016-08-26T03:19:34.641Z,26.45
2016-08-26T03:20:34.646Z,26.44
2016-08-26T03:21:35.359Z,26.4
2016-08-26T03:22:34.663Z,26.36
2016-08-26T03:23:34.672Z,26.47
2016-08-26T03:24:35.783Z,26.37
2016-08-26T03:25:34.684Z,26.4
2016-08-26T03:26:35.396Z,26.4
2016-08-26T03:27:34.700Z,26.44
2016-08-26T03:28:35.422Z,26.44
2016-08-26T03:29:34.715Z,26.4
2016-08-26T03:30:34.013Z,26.4
2016-08-26T03:31:35.440Z,26.4
2016-08-26T03:32:34.741Z,26.36
2016-08-26T03:33:34.753Z,26.45
2016-08-26T03:34:34.756Z,26.44
2016-08-26T03:35:35.972Z,26.4
2016-08-26T03:36:34.066Z,26.43
2016-08-26T03:37:34.781Z,26.4
2016-08-26T03:38:34.079Z,26.37
2016-08-26T03:39:35.854Z,26.37
2016-08-26T03:40:34.805Z,26.37
2016-08-26T03:41:34.809Z,26.37
2016-08-26T03:42:34.820Z,26.44
2016-08-26T03:43:34.122Z,26.44
2016-08-26T03:44:34.836Z,26.39
2016-08-26T03:45:34.846Z,26.4
2016-08-26T03:46:35.747Z,26.37
2016-08-26T03:47:34.861Z,26.44
2016-08-26T03:48:34.867Z,26.45
2016-08-26T03:49:35.595Z,26.36
2016-08-26T03:50:35.360Z,26.45
2016-08-26T03:51:34.889Z,26.43
2016-08-26T03:52:35.604Z,26.47
2016-08-26T03:53:34.199Z,26.4
2016-08-26T03:54:34.211Z,26.43
2016-08-26T03:55:35.629Z,26.45
2016-08-26T03:56:35.644Z,26.51
2016-08-26T03:57:34.939Z,26.45
2016-08-26T03:58:34.947Z,26.36
2016-08-26T03:59:36.315Z,26.37
2016-08-26T04:00:34.962Z,26.45
2016-08-26T04:01:36.283Z,26.45
2016-08-26T04:02:34.986Z,26.43
2016-08-26T04:03:35.695Z,26.45
2016-08-26T04:04:34.286Z,26.43
2016-08-26T04:05:34.304Z,26.48
2016-08-26T04:06:35.718Z,26.4
2016-08-26T04:07:35.020Z,26.44
2016-08-26T04:08:35.029Z,26.45
2016-08-26T04:09:35.034Z,26.43
2016-08-26T04:10:35.049Z,26.5
2016-08-26T04:11:35.051Z,26.5
2016-08-26T04:12:35.359Z,26.47
2016-08-26T04:13:35.115Z,26.44
2016-08-26T04:14:34.365Z,26.47
2016-08-26T04:15:35.790Z,26.4
2016-08-26T04:16:35.092Z,26.48
2016-08-26T04:17:34.391Z,26.47
2016-08-26T04:18:35.157Z,26.47
2016-08-26T04:19:35.819Z,26.44
2016-08-26T04:20:34.418Z,26.45
2016-08-26T04:21:34.426Z,26.48
2016-08-26T04:22:35.858Z,26.4
2016-08-26T04:23:35.599Z,26.39
2016-08-26T04:24:35.862Z,26.39
2016-08-26T04:25:35.164Z,26.45
2016-08-26T04:26:35.879Z,26.35
2016-08-26T04:27:35.178Z,26.45
2016-08-26T04:28:35.897Z,26.5
2016-08-26T04:29:35.906Z,26.4
2016-08-26T04:30:35.912Z,26.45
2016-08-26T04:31:35.221Z,26.44
2016-08-26T04:32:35.223Z,26.51
2016-08-26T04:33:35.946Z,26.52
2016-08-26T04:34:35.033Z,26.45
2016-08-26T04:35:34.540Z,26.48
2016-08-26T04:36:36.306Z,26.4
2016-08-26T04:37:35.967Z,26.45
2016-08-26T04:38:34.572Z,26.47
2016-08-26T04:39:35.280Z,26.48
2016-08-26T04:40:35.286Z,26.5
2016-08-26T04:41:35.297Z,26.5
2016-08-26T04:42:34.601Z,26.44
2016-08-26T04:43:35.315Z,26.45
2016-08-26T04:44:36.030Z,26.45
2016-08-26T04:45:35.269Z,26.44
2016-08-26T04:46:35.354Z,26.45
2016-08-26T04:47:36.669Z,26.48
2016-08-26T04:48:35.352Z,26.52
2016-08-26T04:49:36.121Z,26.44
2016-08-26T04:50:34.664Z,26.51
2016-08-26T04:51:35.381Z,26.45
2016-08-26T04:52:34.689Z,26.51
2016-08-26T04:53:36.101Z,26.45
2016-08-26T04:54:35.403Z,26.47
2016-08-26T04:55:34.702Z,26.51
2016-08-26T04:56:36.126Z,26.45
2016-08-26T04:57:35.427Z,26.44
2016-08-26T04:58:36.183Z,26.43
2016-08-26T04:59:34.737Z,26.43
2016-08-26T05:00:35.452Z,26.5
2016-08-26T05:01:35.458Z,26.5
2016-08-26T05:02:36.180Z,26.47
2016-08-26T05:03:34.775Z,26.48
2016-08-26T05:04:36.194Z,26.4
2016-08-26T05:05:35.495Z,26.45
2016-08-26T05:06:36.208Z,26.45
2016-08-26T05:07:37.046Z,26.55
2016-08-26T05:08:36.233Z,26.5
2016-08-26T05:09:36.383Z,26.51
2016-08-26T05:10:35.545Z,26.51
2016-08-26T05:11:36.251Z,26.48
2016-08-26T05:12:35.605Z,26.51
2016-08-26T05:13:35.609Z,26.52
2016-08-26T05:14:35.578Z,26.51
2016-08-26T05:15:35.573Z,26.52
2016-08-26T05:16:36.313Z,26.48
2016-08-26T05:17:35.593Z,26.45
2016-08-26T05:18:36.314Z,26.57
2016-08-26T05:19:34.911Z,26.5
2016-08-26T05:20:36.828Z,26.55
2016-08-26T05:21:35.623Z,26.52
2016-08-26T05:22:37.271Z,26.47
2016-08-26T05:23:35.644Z,26.48
2016-08-26T05:24:36.356Z,26.52
2016-08-26T05:25:36.368Z,26.62
2016-08-26T05:26:35.670Z,26.63
2016-08-26T05:27:35.675Z,26.62
2016-08-26T05:28:35.683Z,26.62
2016-08-26T05:29:35.693Z,26.63
2016-08-26T05:30:35.704Z,26.72
2016-08-26T05:31:36.557Z,26.69
2016-08-26T05:32:36.429Z,26.69
2016-08-26T05:33:35.732Z,26.63
2016-08-26T05:34:35.744Z,26.65
2016-08-26T05:35:36.455Z,26.65
2016-08-26T05:36:35.757Z,26.69
2016-08-26T05:37:36.468Z,26.67
2016-08-26T05:38:35.785Z,26.72
2016-08-26T05:39:35.782Z,26.67
2016-08-26T05:40:36.494Z,26.67
2016-08-26T05:41:36.508Z,26.6
2016-08-26T05:42:36.313Z,26.63
2016-08-26T05:43:35.814Z,26.6
2016-08-26T05:44:35.825Z,26.62
2016-08-26T05:45:35.832Z,26.75
2016-08-26T05:46:35.842Z,26.69
2016-08-26T05:47:35.144Z,26.69
2016-08-26T05:48:35.861Z,26.6
2016-08-26T05:49:35.163Z,26.73
2016-08-26T05:50:36.585Z,26.67
2016-08-26T05:51:36.592Z,26.67
2016-08-26T05:52:35.894Z,26.66
2016-08-26T05:53:36.603Z,26.72
2016-08-26T05:54:36.614Z,26.7
2016-08-26T05:55:37.905Z,26.7
2016-08-26T05:56:36.637Z,26.66
2016-08-26T05:57:35.987Z,26.72
2016-08-26T05:58:35.240Z,26.69
2016-08-26T05:59:35.965Z,26.7
2016-08-26T06:00:35.964Z,26.69
2016-08-26T06:01:36.681Z,26.69
2016-08-26T06:02:36.688Z,26.67
2016-08-26T06:03:36.700Z,26.72
2016-08-26T06:04:36.150Z,26.66
2016-08-26T06:05:36.007Z,26.65
2016-08-26T06:06:36.014Z,26.75
2016-08-26T06:07:36.026Z,26.7
2016-08-26T06:08:36.740Z,26.65
2016-08-26T06:09:36.748Z,26.72
2016-08-26T06:10:35.342Z,26.69
2016-08-26T06:11:36.061Z,26.77
2016-08-26T06:12:36.827Z,26.77
2016-08-26T06:13:36.832Z,26.77
2016-08-26T06:14:36.793Z,26.77
2016-08-26T06:15:37.253Z,26.82
2016-08-26T06:16:36.806Z,26.77
2016-08-26T06:17:37.951Z,26.81
2016-08-26T06:18:35.413Z,26.81
2016-08-26T06:19:37.083Z,26.82
2016-08-26T06:20:36.846Z,26.82
2016-08-26T06:21:36.144Z,26.85
2016-08-26T06:22:36.863Z,26.85
2016-08-26T06:23:35.456Z,26.81
2016-08-26T06:24:36.222Z,26.89
2016-08-26T06:25:36.182Z,26.95
2016-08-26T06:26:36.190Z,26.82
2016-08-26T06:27:36.198Z,26.89
2016-08-26T06:28:37.423Z,26.92
2016-08-26T06:29:35.515Z,27.06
2016-08-26T06:30:37.131Z,27
2016-08-26T06:31:36.940Z,27.06
2016-08-26T06:32:36.947Z,27.09
2016-08-26T06:33:35.547Z,27.1
2016-08-26T06:34:36.968Z,27.17
2016-08-26T06:35:36.974Z,27.12
2016-08-26T06:36:35.574Z,27.19
2016-08-26T06:37:38.249Z,27.19
2016-08-26T06:38:36.296Z,27.31
2016-08-26T06:39:36.707Z,27.44
2016-08-26T06:40:37.024Z,27.55
2016-08-26T06:41:37.031Z,27.57
2016-08-26T06:42:36.338Z,27.75
2016-08-26T06:43:35.642Z,27.85
2016-08-26T06:44:37.100Z,27.85
2016-08-26T06:45:37.076Z,27.96
2016-08-26T06:46:37.573Z,27.84
2016-08-26T06:47:36.398Z,27.87
2016-08-26T06:48:37.112Z,27.81
2016-08-26T06:49:36.415Z,27.94
2016-08-26T06:50:37.135Z,27.9
2016-08-26T06:51:37.200Z,28.02
2016-08-26T06:52:36.448Z,28.02
2016-08-26T06:53:37.242Z,28.09
2016-08-26T06:54:37.178Z,28.18
2016-08-26T06:55:37.203Z,28.18
2016-08-26T06:56:35.868Z,28.18
2016-08-26T06:57:36.432Z,27.96
2016-08-26T06:58:37.350Z,27.96
2016-08-26T06:59:35.822Z,27.99
2016-08-26T07:00:36.602Z,27.87
2016-08-26T09:52:59.860Z,27.09
2016-08-26T09:53:59.400Z,27.1
2016-08-26T09:54:59.928Z,27.1
2016-08-26T09:56:00.035Z,27.09
2016-08-26T09:56:59.825Z,27.09
2016-08-26T09:57:58.418Z,27.17
2016-08-26T09:58:59.847Z,27.18
2016-08-26T09:59:58.433Z,27.1
2016-08-26T10:00:59.154Z,27.22
2016-08-26T10:01:59.554Z,27.17
2016-08-26T10:02:59.163Z,27.18
2016-08-26T10:03:59.170Z,27.13
2016-08-26T10:04:59.268Z,27.12
2016-08-26T10:05:59.360Z,27.13
2016-08-26T10:06:59.900Z,27.17
2016-08-26T10:07:59.198Z,27.14
2016-08-26T10:08:59.209Z,27.1
2016-08-26T10:09:59.931Z,27.12
2016-08-26T10:11:00.184Z,27.12
2016-08-26T10:11:59.407Z,27.14
2016-08-26T10:12:59.963Z,27.12
2016-08-26T10:13:58.539Z,27.1
2016-08-26T10:14:59.966Z,27.13
2016-08-26T10:15:59.349Z,27.17
2016-08-26T10:16:58.780Z,27.17
2016-08-26T10:17:59.285Z,27.1
2016-08-26T10:18:59.295Z,27.07
2016-08-26T10:19:59.351Z,27.14
2016-08-26T10:21:00.069Z,27.17
2016-08-26T10:21:59.321Z,27.12
2016-08-26T10:22:59.327Z,27.1
2016-08-26T10:24:00.854Z,27.19
2016-08-26T10:25:00.336Z,27.17
2016-08-26T10:26:00.117Z,27.13
2016-08-26T10:26:58.656Z,27.27
2016-08-26T10:27:59.372Z,27.21
2016-08-26T10:29:00.087Z,27.07
2016-08-26T10:29:59.392Z,27.12
2016-08-26T10:30:58.695Z,27.12
2016-08-26T10:31:59.415Z,27.09
2016-08-26T10:33:00.573Z,27.12
2016-08-26T10:34:00.133Z,27.1
2016-08-26T10:35:00.136Z,27.18
2016-08-26T10:35:58.737Z,27.12
2016-08-26T10:36:59.454Z,27.14
2016-08-26T10:38:00.167Z,27.22
2016-08-26T10:39:00.184Z,27.36
2016-08-26T10:40:00.184Z,27.31
2016-08-26T10:40:58.828Z,27.36
2016-08-26T10:42:00.205Z,27.36
2016-08-26T10:42:58.852Z,27.34
2016-08-26T10:44:03.020Z,27.4
2016-08-26T10:44:59.612Z,27.46
2016-08-26T10:45:59.224Z,27.6
2016-08-26T10:47:00.259Z,27.59
2016-08-26T10:47:59.550Z,27.51
2016-08-26T10:48:58.856Z,27.54
2016-08-26T10:50:00.271Z,27.47
2016-08-26T10:51:00.276Z,27.5
2016-08-26T10:51:59.578Z,27.46
2016-08-26T10:52:58.898Z,27.59
2016-08-26T10:53:59.706Z,27.59
2016-08-26T10:55:00.564Z,27.54
2016-08-26T10:56:00.323Z,27.54
2016-08-26T10:57:01.553Z,27.5
2016-08-26T10:57:59.630Z,27.59
2016-08-26T10:58:58.983Z,27.6
2016-08-26T11:00:00.353Z,27.55
2016-08-26T11:01:00.360Z,27.63
2016-08-26T11:01:59.667Z,27.63
2016-08-26T11:02:59.673Z,27.63
2016-08-26T11:03:59.680Z,27.69
2016-08-26T11:05:00.401Z,27.62
2016-08-26T11:06:00.405Z,27.55
2016-08-26T11:06:58.997Z,27.65
2016-08-26T11:08:01.243Z,27.54
2016-08-26T11:08:59.071Z,27.57
2016-08-26T11:09:59.734Z,27.55
2016-08-26T11:11:00.457Z,27.63
2016-08-26T11:12:00.454Z,27.55
2016-08-26T11:12:59.763Z,27.55
2016-08-26T11:13:59.767Z,27.6
2016-08-26T11:14:59.772Z,27.63
2016-08-26T11:15:59.079Z,27.62
2016-08-26T11:16:59.350Z,27.67
2016-08-26T11:18:00.503Z,27.62
2016-08-26T11:19:01.663Z,27.7
2016-08-26T11:19:59.108Z,27.7
2016-08-26T11:21:00.528Z,27.62
2016-08-26T11:21:59.830Z,27.55
2016-08-26T11:22:59.840Z,27.63
2016-08-26T11:24:00.555Z,27.63
2016-08-26T11:25:14.731Z,27.65
2016-08-26T11:26:14.099Z,27.63
2016-08-26T11:26:59.971Z,27.63
2016-08-26T11:28:01.700Z,27.55
2016-08-26T11:29:00.597Z,27.54
2016-08-26T11:30:01.306Z,27.65
2016-08-26T11:30:59.200Z,27.66
2016-08-26T11:31:59.210Z,27.77
2016-08-26T11:32:59.217Z,27.78
2016-08-26T11:34:00.639Z,27.72
2016-08-26T11:34:59.991Z,27.77
2016-08-26T11:36:00.652Z,27.85
2016-08-26T11:37:00.665Z,27.77
2016-08-26T11:37:59.258Z,27.84
2016-08-26T11:39:01.729Z,27.77
2016-08-26T11:39:59.982Z,27.82
2016-08-26T11:41:00.634Z,27.79
2016-08-26T11:42:00.703Z,27.85
2016-08-26T11:43:00.714Z,27.84
2016-08-26T11:43:59.307Z,27.81
2016-08-26T11:45:00.020Z,27.81
2016-08-26T11:46:00.735Z,27.78
2016-08-26T11:47:00.742Z,27.67
2016-08-26T11:48:00.751Z,27.78
2016-08-26T11:48:59.341Z,27.66
2016-08-26T11:50:01.175Z,27.66
2016-08-26T11:51:00.070Z,27.74
2016-08-26T11:52:00.075Z,27.65
2016-08-26T11:52:59.380Z,27.67
2016-08-26T11:54:01.703Z,27.72
2016-08-26T11:55:00.252Z,27.72
2016-08-26T11:56:00.114Z,27.69
2016-08-26T11:57:00.121Z,27.69
2016-08-26T11:58:00.328Z,27.67
2016-08-26T11:58:59.432Z,27.72
2016-08-26T11:59:59.440Z,27.69
2016-08-26T12:01:00.156Z,27.69
2016-08-26T12:02:00.875Z,27.66
2016-08-26T12:03:00.174Z,27.67
2016-08-26T12:04:00.182Z,27.67
2016-08-26T12:05:01.096Z,27.75
2016-08-26T12:05:59.496Z,27.66
2016-08-26T12:07:00.210Z,27.63
2016-08-26T12:07:59.559Z,27.72
2016-08-26T12:09:00.228Z,27.72
2016-08-26T12:10:00.305Z,27.74
2016-08-26T12:11:00.954Z,27.7
2016-08-26T12:12:00.254Z,27.67
2016-08-26T12:13:01.314Z,27.75
2016-08-26T12:14:01.932Z,27.69
2016-08-26T12:15:01.086Z,27.69
2016-08-26T12:16:00.705Z,27.66
2016-08-26T12:17:01.007Z,27.74
2016-08-26T12:18:00.309Z,27.7
2016-08-26T12:19:00.316Z,27.7
2016-08-26T12:20:00.327Z,27.66
2016-08-26T12:21:00.335Z,27.7
2016-08-26T12:22:00.343Z,27.65
2016-08-26T12:23:01.304Z,27.63
2016-08-26T12:24:00.360Z,27.75
2016-08-26T12:25:01.004Z,27.7
2016-08-26T12:26:01.087Z,27.72
2016-08-26T12:27:00.684Z,27.72
2016-08-26T12:28:00.404Z,27.74
2016-08-26T12:29:00.407Z,27.74
2016-08-26T12:30:01.127Z,27.69
2016-08-26T12:31:01.134Z,27.72
2016-08-26T12:32:00.433Z,27.66
2016-08-26T12:32:59.737Z,27.67
2016-08-26T12:34:01.832Z,27.72
2016-08-26T12:35:00.462Z,27.69
2016-08-26T12:36:00.865Z,27.66
2016-08-26T12:37:00.484Z,27.74
2016-08-26T12:38:01.195Z,27.75
2016-08-26T12:38:59.794Z,27.66
2016-08-26T12:40:00.513Z,27.77
2016-08-26T12:41:01.222Z,27.7
2016-08-26T12:42:00.531Z,27.65
2016-08-26T12:43:00.533Z,27.63
2016-08-26T12:44:00.598Z,27.78
2016-08-26T12:45:01.701Z,27.67
2016-08-26T12:46:00.563Z,27.7
2016-08-26T12:47:01.221Z,27.74
2016-08-26T12:48:00.578Z,27.79
2016-08-26T12:49:00.134Z,27.79
2016-08-26T12:50:00.600Z,27.78
2016-08-26T12:51:01.311Z,27.88
2016-08-26T12:51:59.910Z,27.79
2016-08-26T12:52:59.915Z,27.79
2016-08-26T12:54:00.630Z,27.84
2016-08-26T12:55:01.349Z,27.88
2016-08-26T12:56:01.449Z,27.85
2016-08-26T12:57:00.655Z,27.84
2016-08-26T12:58:00.668Z,27.82
2016-08-26T12:59:01.384Z,27.85
2016-08-26T13:00:00.683Z,27.85
2016-08-26T13:01:01.402Z,27.87
2016-08-26T13:02:01.422Z,27.88
2016-08-26T13:03:00.711Z,27.87
2016-08-26T13:04:00.721Z,27.92
2016-08-26T13:05:01.488Z,27.84
2016-08-26T13:06:00.742Z,27.88
2016-08-26T13:07:00.590Z,27.92
2016-08-26T13:08:00.756Z,27.92
2016-08-26T13:09:00.108Z,27.85
2016-08-26T13:10:00.782Z,27.87
2016-08-26T13:11:00.077Z,27.92
2016-08-26T13:12:01.497Z,27.92
2016-08-26T13:13:01.509Z,27.81
2016-08-26T13:14:01.521Z,27.96
2016-08-26T13:15:01.523Z,27.99
2016-08-26T13:16:00.876Z,27.94
2016-08-26T13:17:01.542Z,27.93
2016-08-26T13:18:01.602Z,27.99
2016-08-26T13:19:01.561Z,27.93
2016-08-26T13:20:02.615Z,27.93
2016-08-26T13:21:01.578Z,27.93
2016-08-26T13:22:01.431Z,28
2016-08-26T13:23:01.598Z,27.96
2016-08-26T13:24:01.606Z,27.94
2016-08-26T13:25:00.908Z,27.9
2016-08-26T13:26:01.623Z,28
2016-08-26T13:27:00.937Z,28.07
2016-08-26T13:28:00.934Z,27.99
2016-08-26T13:29:00.943Z,28.02
2016-08-26T13:30:00.954Z,28.03
2016-08-26T13:31:02.787Z,27.99
2016-08-26T13:32:00.973Z,27.9
2016-08-26T13:33:01.684Z,28.02
2016-08-26T13:34:00.995Z,27.94
2016-08-26T13:35:00.995Z,27.96
2016-08-26T13:36:00.358Z,27.99
2016-08-26T13:37:01.016Z,27.93
2016-08-26T13:38:01.121Z,27.96
2016-08-26T13:39:01.738Z,28.03
2016-08-26T13:40:01.088Z,28.04
2016-08-26T13:41:01.764Z,27.99
2016-08-26T13:42:01.770Z,28
2016-08-26T13:43:00.410Z,28.09
2016-08-26T13:44:01.790Z,27.97
2016-08-26T13:45:01.099Z,27.99
2016-08-26T13:46:01.093Z,27.96
2016-08-26T13:47:01.100Z,28.02
2016-08-26T13:48:01.108Z,28.19
2016-08-26T13:49:01.830Z,28.07
2016-08-26T13:50:00.423Z,28.04
2016-08-26T13:51:01.850Z,28.04
2016-08-26T13:52:01.855Z,28.09
2016-08-26T13:53:01.872Z,27.94
2016-08-26T13:54:01.872Z,27.97
2016-08-26T13:55:00.619Z,28.02
2016-08-26T13:56:01.892Z,27.94
2016-08-26T13:57:00.485Z,28.14
2016-08-26T13:58:00.495Z,28
2016-08-26T13:59:01.211Z,28.14
2016-08-26T14:00:01.278Z,28.12
2016-08-26T14:01:00.527Z,28.18
2016-08-26T14:02:01.237Z,28.17
2016-08-26T14:03:01.245Z,28.15
2016-08-26T14:04:02.461Z,28.17
2016-08-26T14:05:01.263Z,28.12
2016-08-26T14:06:00.563Z,28.04
2016-08-26T14:07:01.987Z,28.02
2016-08-26T14:08:01.997Z,28.07
2016-08-26T14:09:01.294Z,28.15
2016-08-26T14:10:01.305Z,28.56
2016-08-26T14:11:00.606Z,28.56
2016-08-26T14:12:02.024Z,28.52
2016-08-26T14:13:02.047Z,28.44
2016-08-26T14:14:01.351Z,28.33
2016-08-26T14:15:01.497Z,28.4
2016-08-26T14:16:00.647Z,28.31
2016-08-26T14:17:01.371Z,28.27
2016-08-26T14:18:01.369Z,28.31
2016-08-26T14:19:00.672Z,28.19
2016-08-26T14:20:01.388Z,28.18
2016-08-26T14:21:01.394Z,28.17
2016-08-26T14:22:02.113Z,28.15
2016-08-26T14:23:00.708Z,28.19
2016-08-26T14:24:00.713Z,28.21
2016-08-26T14:25:01.437Z,28.29
2016-08-26T14:26:02.146Z,28.19
2016-08-26T14:27:02.162Z,28.19
2016-08-26T14:28:00.754Z,28.25
2016-08-26T14:29:01.464Z,28.17
2016-08-26T14:30:01.624Z,28.19
2016-08-26T14:31:01.480Z,28.17
2016-08-26T14:32:02.201Z,28.12
2016-08-26T14:33:01.501Z,28.12
2016-08-26T14:34:01.518Z,28.11
2016-08-26T14:35:02.276Z,28.12
2016-08-26T14:36:01.581Z,28.17
2016-08-26T14:37:01.537Z,28.29
2016-08-26T14:38:00.987Z,28.22
2016-08-26T14:39:03.149Z,28.31
2016-08-26T14:40:01.575Z,28.4
2016-08-26T14:41:01.571Z,28.33
2016-08-26T14:42:00.870Z,28.54
2016-08-26T14:43:00.931Z,28.37
2016-08-26T14:44:00.889Z,28.33
2016-08-26T14:45:02.311Z,28.21
2016-08-26T14:46:02.318Z,28.19
2016-08-26T14:47:01.621Z,28.11
2016-08-26T14:48:02.336Z,28.11
2016-08-26T14:49:01.638Z,28.12
2016-08-26T14:50:03.379Z,28.12
2016-08-26T14:51:02.365Z,28.14
2016-08-26T14:52:01.666Z,28.09
2016-08-26T14:53:01.680Z,28.07
2016-08-26T14:54:02.388Z,28.15
2016-08-26T14:55:02.456Z,28.18
2016-08-26T14:56:02.506Z,28.18
2016-08-26T14:57:01.712Z,28.18
2016-08-26T14:58:01.715Z,28.09
2016-08-26T14:59:01.727Z,28.15
2016-08-26T15:00:01.742Z,28.17
2016-08-26T15:01:03.242Z,28.21
2016-08-26T15:02:02.461Z,28.17
2016-08-26T15:03:02.477Z,28.17
2016-08-26T15:04:01.777Z,28.18
2016-08-26T15:05:02.491Z,28.25
2016-08-26T15:06:01.082Z,28.11
2016-08-26T15:07:01.798Z,28.18
2016-08-26T15:08:01.803Z,28.19
2016-08-26T15:09:02.585Z,28.18
2016-08-26T15:10:01.821Z,28.18
2016-08-26T15:11:02.536Z,28.18
2016-08-26T15:12:03.690Z,28.11
2016-08-26T15:13:02.556Z,28.15
2016-08-26T15:14:02.056Z,28.11
2016-08-26T15:15:01.867Z,28.27
2016-08-26T15:16:01.876Z,28.25
2016-08-26T15:17:02.589Z,28.31
2016-08-26T15:18:02.597Z,28.3
2016-08-26T15:19:01.900Z,28.3
2016-08-26T15:20:02.622Z,28.3
2016-08-26T15:21:01.915Z,28.17
2016-08-26T15:22:02.632Z,28.15
2016-08-26T15:23:02.930Z,28.11
2016-08-26T15:24:01.946Z,28.11
2016-08-26T15:25:01.951Z,28.11
2016-08-26T15:26:01.958Z,28.09
2016-08-26T15:27:02.676Z,28.06
2016-08-26T15:28:01.272Z,28.07
2016-08-26T15:29:01.279Z,28.14
2016-08-26T15:30:01.994Z,28.14
2016-08-26T15:31:02.712Z,28.04
2016-08-26T15:32:03.139Z,28.11
2016-08-26T15:33:01.313Z,28.04
2016-08-26T15:34:02.880Z,28.02
2016-08-26T15:35:02.750Z,28.02
2016-08-26T15:36:02.755Z,28.02
2016-08-26T15:37:02.763Z,28.09
2016-08-26T15:38:02.067Z,27.96
2016-08-26T15:39:02.076Z,27.97
2016-08-26T15:40:02.794Z,28.06
2016-08-26T15:41:02.139Z,28.02
2016-08-26T15:42:02.109Z,27.99
2016-08-26T15:43:03.911Z,28.02
2016-08-26T15:44:02.823Z,27.97
2016-08-26T15:45:03.035Z,28
2016-08-26T15:46:01.483Z,28.04
2016-08-26T15:47:02.847Z,27.97
2016-08-26T15:48:02.160Z,28.04